sensor_id;sensor_type;location;lat;lon;timestamp;temperature;humidity
12815;DHT22;6472;52.328;13.070;2022-11-25T00:01:10;1.90;99.90
12815;DHT22;6472;52.328;13.070;2022-11-25T00:03:40;1.90;99.90
12815;DHT22;6472;52.328;13.070;2022-11-25T00:06:12;2.00;99.90
12815;DHT22;6472;52.328;13.070;2022-11-25T00:08:42;2.00;99.90
12815;DHT22;6472;52.328;13.070;2022-11-25T00:11:11;1.90;99.90
12815;DHT22;6472;52.328;13.070;2022-11-25T00:13:42;2.00;99.90
12815;DHT22;6472;52.328;13.070;2022-11-25T00:16:12;2.00;99.90
12815;DHT22;6472;52.328;13.070;2022-11-25T00:18:44;2.00;99.90
12815;DHT22;6472;52.328;13.070;2022-11-25T00:21:17;2.00;99.90
12815;DHT22;6472;52.328;13.070;2022-11-25T00:23:50;2.00;99.90
12815;DHT22;6472;52.328;13.070;2022-11-25T00:26:19;2.00;99.90
12815;DHT22;6472;52.328;13.070;2022-11-25T00:28:49;2.00;99.90
12815;DHT22;6472;52.328;13.070;2022-11-25T00:31:19;1.90;99.90
12815;DHT22;6472;52.328;13.070;2022-11-25T00:33:48;2.00;99.90
12815;DHT22;6472;52.328;13.070;2022-11-25T00:36:19;1.90;99.90
12815;DHT22;6472;52.328;13.070;2022-11-25T00:38:52;1.90;99.90
12815;DHT22;6472;52.328;13.070;2022-11-25T00:41:20;1.90;99.90
12815;DHT22;6472;52.328;13.070;2022-11-25T00:44:09;1.80;99.90
12815;DHT22;6472;52.328;13.070;2022-11-25T00:46:55;1.80;99.90
12815;DHT22;6472;52.328;13.070;2022-11-25T00:49:24;1.80;99.90
12815;DHT22;6472;52.328;13.070;2022-11-25T00:51:52;1.80;99.90
12815;DHT22;6472;52.328;13.070;2022-11-25T00:54:20;1.80;99.90
12815;DHT22;6472;52.328;13.070;2022-11-25T00:56:48;1.80;99.90
12815;DHT22;6472;52.328;13.070;2022-11-25T00:59:18;1.80;99.90
12815;DHT22;6472;52.328;13.070;2022-11-25T01:01:46;1.80;99.90
12815;DHT22;6472;52.328;13.070;2022-11-25T01:04:15;1.80;99.90
12815;DHT22;6472;52.328;13.070;2022-11-25T01:06:43;1.70;99.90
12815;DHT22;6472;52.328;13.070;2022-11-25T01:09:12;1.70;99.90
12815;DHT22;6472;52.328;13.070;2022-11-25T01:11:40;1.70;99.90
12815;DHT22;6472;52.328;13.070;2022-11-25T01:14:09;1.60;99.90
12815;DHT22;6472;52.328;13.070;2022-11-25T01:16:38;1.60;99.90
12815;DHT22;6472;52.328;13.070;2022-11-25T01:19:07;1.50;99.90
12815;DHT22;6472;52.328;13.070;2022-11-25T01:21:35;1.60;99.90
12815;DHT22;6472;52.328;13.070;2022-11-25T01:24:05;1.50;99.90
12815;DHT22;6472;52.328;13.070;2022-11-25T01:26:34;1.60;99.90
12815;DHT22;6472;52.328;13.070;2022-11-25T01:29:04;1.50;99.90
12815;DHT22;6472;52.328;13.070;2022-11-25T01:31:34;1.60;99.90
12815;DHT22;6472;52.328;13.070;2022-11-25T01:34:07;1.60;99.90
12815;DHT22;6472;52.328;13.070;2022-11-25T01:36:35;1.60;99.90
12815;DHT22;6472;52.328;13.070;2022-11-25T01:39:03;1.50;99.90
12815;DHT22;6472;52.328;13.070;2022-11-25T01:41:33;1.50;99.90
12815;DHT22;6472;52.328;13.070;2022-11-25T01:44:04;1.50;99.90
12815;DHT22;6472;52.328;13.070;2022-11-25T01:46:45;1.40;99.90
12815;DHT22;6472;52.328;13.070;2022-11-25T01:49:18;1.30;99.90
12815;DHT22;6472;52.328;13.070;2022-11-25T01:51:51;1.30;99.90
12815;DHT22;6472;52.328;13.070;2022-11-25T01:54:23;1.30;99.90
12815;DHT22;6472;52.328;13.070;2022-11-25T01:56:57;1.30;99.90
12815;DHT22;6472;52.328;13.070;2022-11-25T01:59:27;1.30;99.90
12815;DHT22;6472;52.328;13.070;2022-11-25T02:01:57;1.30;99.90
12815;DHT22;6472;52.328;13.070;2022-11-25T02:04:32;1.30;99.90
12815;DHT22;6472;52.328;13.070;2022-11-25T02:07:07;1.20;99.90
12815;DHT22;6472;52.328;13.070;2022-11-25T02:09:38;1.20;99.90
12815;DHT22;6472;52.328;13.070;2022-11-25T02:12:09;1.20;99.90
12815;DHT22;6472;52.328;13.070;2022-11-25T02:14:38;1.20;99.90
12815;DHT22;6472;52.328;13.070;2022-11-25T02:17:07;1.20;99.90
12815;DHT22;6472;52.328;13.070;2022-11-25T02:19:55;1.20;99.90
12815;DHT22;6472;52.328;13.070;2022-11-25T02:22:29;1.20;99.90
12815;DHT22;6472;52.328;13.070;2022-11-25T02:25:09;1.20;99.90
12815;DHT22;6472;52.328;13.070;2022-11-25T02:27:37;1.20;99.90
12815;DHT22;6472;52.328;13.070;2022-11-25T02:30:06;1.20;99.90
12815;DHT22;6472;52.328;13.070;2022-11-25T02:32:34;1.20;99.90
12815;DHT22;6472;52.328;13.070;2022-11-25T02:35:27;1.30;99.90
12815;DHT22;6472;52.328;13.070;2022-11-25T02:38:06;1.30;99.90
12815;DHT22;6472;52.328;13.070;2022-11-25T02:40:41;1.30;99.90
12815;DHT22;6472;52.328;13.070;2022-11-25T02:43:11;1.40;99.90
12815;DHT22;6472;52.328;13.070;2022-11-25T02:45:51;1.40;99.90
12815;DHT22;6472;52.328;13.070;2022-11-25T02:48:19;1.40;99.90
12815;DHT22;6472;52.328;13.070;2022-11-25T02:51:10;1.40;99.90
12815;DHT22;6472;52.328;13.070;2022-11-25T02:53:38;1.40;99.90
12815;DHT22;6472;52.328;13.070;2022-11-25T02:56:09;1.50;99.90
12815;DHT22;6472;52.328;13.070;2022-11-25T02:58:38;1.50;99.90
12815;DHT22;6472;52.328;13.070;2022-11-25T03:01:07;1.50;99.90
12815;DHT22;6472;52.328;13.070;2022-11-25T03:03:35;1.50;99.90
12815;DHT22;6472;52.328;13.070;2022-11-25T03:06:04;1.50;99.90
12815;DHT22;6472;52.328;13.070;2022-11-25T03:08:32;1.60;99.90
12815;DHT22;6472;52.328;13.070;2022-11-25T03:11:00;1.50;99.90
12815;DHT22;6472;52.328;13.070;2022-11-25T03:13:29;1.60;99.90
12815;DHT22;6472;52.328;13.070;2022-11-25T03:15:57;1.60;99.90
12815;DHT22;6472;52.328;13.070;2022-11-25T03:18:25;1.60;99.90
12815;DHT22;6472;52.328;13.070;2022-11-25T03:20:54;1.60;99.90
12815;DHT22;6472;52.328;13.070;2022-11-25T03:23:23;1.60;99.90
12815;DHT22;6472;52.328;13.070;2022-11-25T03:25:51;1.60;99.90
12815;DHT22;6472;52.328;13.070;2022-11-25T03:28:19;1.70;99.90
12815;DHT22;6472;52.328;13.070;2022-11-25T03:30:49;1.70;99.90
12815;DHT22;6472;52.328;13.070;2022-11-25T03:33:17;1.70;99.90
12815;DHT22;6472;52.328;13.070;2022-11-25T03:35:47;1.70;99.90
12815;DHT22;6472;52.328;13.070;2022-11-25T03:38:15;1.80;99.90
12815;DHT22;6472;52.328;13.070;2022-11-25T03:40:43;1.80;99.90
12815;DHT22;6472;52.328;13.070;2022-11-25T03:43:12;1.80;99.90
12815;DHT22;6472;52.328;13.070;2022-11-25T03:45:40;1.80;99.90
12815;DHT22;6472;52.328;13.070;2022-11-25T03:48:10;1.80;99.90
12815;DHT22;6472;52.328;13.070;2022-11-25T03:50:38;1.80;99.90
12815;DHT22;6472;52.328;13.070;2022-11-25T03:53:08;1.80;99.90
12815;DHT22;6472;52.328;13.070;2022-11-25T03:55:36;1.80;99.90
12815;DHT22;6472;52.328;13.070;2022-11-25T03:58:04;1.90;99.90
12815;DHT22;6472;52.328;13.070;2022-11-25T04:00:32;1.90;99.90
12815;DHT22;6472;52.328;13.070;2022-11-25T04:03:00;1.90;99.90
12815;DHT22;6472;52.328;13.070;2022-11-25T04:05:29;1.90;99.90
12815;DHT22;6472;52.328;13.070;2022-11-25T04:07:57;1.90;99.90
12815;DHT22;6472;52.328;13.070;2022-11-25T04:10:26;1.90;99.90
12815;DHT22;6472;52.328;13.070;2022-11-25T04:12:54;1.90;99.90
12815;DHT22;6472;52.328;13.070;2022-11-25T04:15:21;2.00;99.90
12815;DHT22;6472;52.328;13.070;2022-11-25T04:17:49;2.00;99.90
12815;DHT22;6472;52.328;13.070;2022-11-25T04:20:17;1.90;99.90
12815;DHT22;6472;52.328;13.070;2022-11-25T04:22:47;2.00;99.90
12815;DHT22;6472;52.328;13.070;2022-11-25T04:25:15;2.00;99.90
12815;DHT22;6472;52.328;13.070;2022-11-25T04:27:43;2.00;99.90
12815;DHT22;6472;52.328;13.070;2022-11-25T04:30:12;2.00;99.90
12815;DHT22;6472;52.328;13.070;2022-11-25T04:32:40;2.00;99.90
12815;DHT22;6472;52.328;13.070;2022-11-25T04:35:08;2.00;99.90
12815;DHT22;6472;52.328;13.070;2022-11-25T04:37:36;2.00;99.90
12815;DHT22;6472;52.328;13.070;2022-11-25T04:40:07;2.00;99.90
12815;DHT22;6472;52.328;13.070;2022-11-25T04:42:35;2.10;99.90
12815;DHT22;6472;52.328;13.070;2022-11-25T04:45:07;2.00;99.90
12815;DHT22;6472;52.328;13.070;2022-11-25T04:47:51;2.10;99.90
12815;DHT22;6472;52.328;13.070;2022-11-25T04:50:21;2.00;99.90
12815;DHT22;6472;52.328;13.070;2022-11-25T04:52:49;2.00;99.90
12815;DHT22;6472;52.328;13.070;2022-11-25T04:55:19;2.00;99.90
12815;DHT22;6472;52.328;13.070;2022-11-25T04:57:47;2.00;99.90
12815;DHT22;6472;52.328;13.070;2022-11-25T05:00:16;1.90;99.90
12815;DHT22;6472;52.328;13.070;2022-11-25T05:02:43;1.90;99.90
12815;DHT22;6472;52.328;13.070;2022-11-25T05:05:11;1.90;99.90
12815;DHT22;6472;52.328;13.070;2022-11-25T05:07:40;1.80;99.90
12815;DHT22;6472;52.328;13.070;2022-11-25T05:10:08;1.70;99.90
12815;DHT22;6472;52.328;13.070;2022-11-25T05:12:37;1.70;99.90
12815;DHT22;6472;52.328;13.070;2022-11-25T05:15:07;1.70;99.90
12815;DHT22;6472;52.328;13.070;2022-11-25T05:17:35;1.60;99.90
12815;DHT22;6472;52.328;13.070;2022-11-25T05:20:05;1.50;99.90
12815;DHT22;6472;52.328;13.070;2022-11-25T05:22:34;1.50;99.90
12815;DHT22;6472;52.328;13.070;2022-11-25T05:25:02;1.40;99.90
12815;DHT22;6472;52.328;13.070;2022-11-25T05:27:32;1.30;99.90
12815;DHT22;6472;52.328;13.070;2022-11-25T05:30:02;1.20;99.90
12815;DHT22;6472;52.328;13.070;2022-11-25T05:32:30;1.10;99.90
12815;DHT22;6472;52.328;13.070;2022-11-25T05:34:58;1.00;99.90
12815;DHT22;6472;52.328;13.070;2022-11-25T05:37:26;0.90;99.90
12815;DHT22;6472;52.328;13.070;2022-11-25T05:39:54;0.80;99.90
12815;DHT22;6472;52.328;13.070;2022-11-25T05:42:22;0.70;99.90
12815;DHT22;6472;52.328;13.070;2022-11-25T05:44:50;0.60;99.90
12815;DHT22;6472;52.328;13.070;2022-11-25T05:47:20;0.50;99.90
12815;DHT22;6472;52.328;13.070;2022-11-25T05:49:48;0.40;99.90
12815;DHT22;6472;52.328;13.070;2022-11-25T05:52:16;0.40;99.90
12815;DHT22;6472;52.328;13.070;2022-11-25T05:54:44;0.30;99.90
12815;DHT22;6472;52.328;13.070;2022-11-25T05:57:12;0.30;99.90
12815;DHT22;6472;52.328;13.070;2022-11-25T05:59:40;0.20;99.90
12815;DHT22;6472;52.328;13.070;2022-11-25T06:02:08;0.20;99.90
12815;DHT22;6472;52.328;13.070;2022-11-25T06:04:38;0.10;99.90
12815;DHT22;6472;52.328;13.070;2022-11-25T06:07:06;0.10;99.90
12815;DHT22;6472;52.328;13.070;2022-11-25T06:09:34;0.10;99.90
12815;DHT22;6472;52.328;13.070;2022-11-25T06:12:02;0.10;99.90
12815;DHT22;6472;52.328;13.070;2022-11-25T06:14:30;0.00;99.90
12815;DHT22;6472;52.328;13.070;2022-11-25T06:16:59;0.00;99.90
12815;DHT22;6472;52.328;13.070;2022-11-25T06:19:27;0.00;99.90
12815;DHT22;6472;52.328;13.070;2022-11-25T06:21:56;0.00;99.90
12815;DHT22;6472;52.328;13.070;2022-11-25T06:24:24;0.10;99.90
12815;DHT22;6472;52.328;13.070;2022-11-25T06:26:52;0.10;99.90
12815;DHT22;6472;52.328;13.070;2022-11-25T06:29:20;0.10;99.90
12815;DHT22;6472;52.328;13.070;2022-11-25T06:31:48;0.10;99.90
12815;DHT22;6472;52.328;13.070;2022-11-25T06:34:17;0.20;99.90
12815;DHT22;6472;52.328;13.070;2022-11-25T06:36:45;0.20;99.90
12815;DHT22;6472;52.328;13.070;2022-11-25T06:39:14;0.20;99.90
12815;DHT22;6472;52.328;13.070;2022-11-25T06:41:42;0.20;99.90
12815;DHT22;6472;52.328;13.070;2022-11-25T06:44:11;0.20;99.90
12815;DHT22;6472;52.328;13.070;2022-11-25T06:46:39;0.30;99.90
12815;DHT22;6472;52.328;13.070;2022-11-25T06:49:07;0.30;99.90
12815;DHT22;6472;52.328;13.070;2022-11-25T06:51:35;0.30;99.90
12815;DHT22;6472;52.328;13.070;2022-11-25T06:54:04;0.40;99.90
12815;DHT22;6472;52.328;13.070;2022-11-25T06:56:34;0.40;99.90
12815;DHT22;6472;52.328;13.070;2022-11-25T06:59:02;0.40;99.90
12815;DHT22;6472;52.328;13.070;2022-11-25T07:01:30;0.50;99.90
12815;DHT22;6472;52.328;13.070;2022-11-25T07:04:00;0.50;99.90
12815;DHT22;6472;52.328;13.070;2022-11-25T07:06:30;0.50;99.90
12815;DHT22;6472;52.328;13.070;2022-11-25T07:08:58;0.60;99.90
12815;DHT22;6472;52.328;13.070;2022-11-25T07:11:29;0.60;99.90
12815;DHT22;6472;52.328;13.070;2022-11-25T07:14:01;0.70;99.90
12815;DHT22;6472;52.328;13.070;2022-11-25T07:16:30;0.70;99.90
12815;DHT22;6472;52.328;13.070;2022-11-25T07:18:58;0.80;99.90
12815;DHT22;6472;52.328;13.070;2022-11-25T07:21:28;0.80;99.90
12815;DHT22;6472;52.328;13.070;2022-11-25T07:23:58;0.80;99.90
12815;DHT22;6472;52.328;13.070;2022-11-25T07:26:29;0.90;99.90
12815;DHT22;6472;52.328;13.070;2022-11-25T07:29:00;0.90;99.90
12815;DHT22;6472;52.328;13.070;2022-11-25T07:31:29;1.00;99.90
12815;DHT22;6472;52.328;13.070;2022-11-25T07:34:01;1.00;99.90
12815;DHT22;6472;52.328;13.070;2022-11-25T07:36:32;1.10;99.90
12815;DHT22;6472;52.328;13.070;2022-11-25T07:39:04;1.10;99.90
12815;DHT22;6472;52.328;13.070;2022-11-25T07:41:32;1.20;99.90
12815;DHT22;6472;52.328;13.070;2022-11-25T07:44:04;1.20;99.90
12815;DHT22;6472;52.328;13.070;2022-11-25T07:46:35;1.20;99.90
12815;DHT22;6472;52.328;13.070;2022-11-25T07:49:04;1.30;99.90
12815;DHT22;6472;52.328;13.070;2022-11-25T07:51:34;1.30;99.90
12815;DHT22;6472;52.328;13.070;2022-11-25T07:54:04;1.40;99.90
12815;DHT22;6472;52.328;13.070;2022-11-25T07:56:34;1.40;99.90
12815;DHT22;6472;52.328;13.070;2022-11-25T07:59:07;1.40;99.90
12815;DHT22;6472;52.328;13.070;2022-11-25T08:01:35;1.50;99.90
12815;DHT22;6472;52.328;13.070;2022-11-25T08:04:03;1.60;99.90
12815;DHT22;6472;52.328;13.070;2022-11-25T08:06:31;1.70;99.90
12815;DHT22;6472;52.328;13.070;2022-11-25T08:08:59;1.70;99.90
12815;DHT22;6472;52.328;13.070;2022-11-25T08:11:29;1.70;99.90
12815;DHT22;6472;52.328;13.070;2022-11-25T08:13:58;1.80;99.90
12815;DHT22;6472;52.328;13.070;2022-11-25T08:16:28;1.90;99.90
12815;DHT22;6472;52.328;13.070;2022-11-25T08:18:58;1.90;99.90
12815;DHT22;6472;52.328;13.070;2022-11-25T08:21:27;2.00;99.90
12815;DHT22;6472;52.328;13.070;2022-11-25T08:23:55;2.10;99.90
12815;DHT22;6472;52.328;13.070;2022-11-25T08:26:24;2.10;99.90
12815;DHT22;6472;52.328;13.070;2022-11-25T08:28:53;2.20;99.90
12815;DHT22;6472;52.328;13.070;2022-11-25T08:31:23;2.30;99.90
12815;DHT22;6472;52.328;13.070;2022-11-25T08:33:54;2.40;99.90
12815;DHT22;6472;52.328;13.070;2022-11-25T08:36:23;2.50;99.90
12815;DHT22;6472;52.328;13.070;2022-11-25T08:38:53;2.50;99.90
12815;DHT22;6472;52.328;13.070;2022-11-25T08:41:25;2.60;99.90
12815;DHT22;6472;52.328;13.070;2022-11-25T08:43:55;2.70;99.90
12815;DHT22;6472;52.328;13.070;2022-11-25T08:46:25;2.70;99.90
12815;DHT22;6472;52.328;13.070;2022-11-25T08:48:55;2.70;99.90
12815;DHT22;6472;52.328;13.070;2022-11-25T08:51:25;2.70;99.90
12815;DHT22;6472;52.328;13.070;2022-11-25T08:53:53;2.70;99.90
12815;DHT22;6472;52.328;13.070;2022-11-25T08:56:22;2.70;99.90
12815;DHT22;6472;52.328;13.070;2022-11-25T08:58:52;2.80;99.90
12815;DHT22;6472;52.328;13.070;2022-11-25T09:01:22;2.90;99.90
12815;DHT22;6472;52.328;13.070;2022-11-25T09:03:51;2.90;99.90
12815;DHT22;6472;52.328;13.070;2022-11-25T09:06:22;3.00;99.90
12815;DHT22;6472;52.328;13.070;2022-11-25T09:08:54;3.10;99.90
12815;DHT22;6472;52.328;13.070;2022-11-25T09:11:22;3.40;99.90
12815;DHT22;6472;52.328;13.070;2022-11-25T09:13:51;3.50;99.90
12815;DHT22;6472;52.328;13.070;2022-11-25T09:16:19;3.70;99.90
12815;DHT22;6472;52.328;13.070;2022-11-25T09:18:47;3.80;99.90
12815;DHT22;6472;52.328;13.070;2022-11-25T09:21:25;4.00;99.90
12815;DHT22;6472;52.328;13.070;2022-11-25T09:23:53;4.10;99.90
12815;DHT22;6472;52.328;13.070;2022-11-25T09:26:23;4.30;99.90
12815;DHT22;6472;52.328;13.070;2022-11-25T09:28:52;4.40;99.90
12815;DHT22;6472;52.328;13.070;2022-11-25T09:31:20;4.50;99.90
12815;DHT22;6472;52.328;13.070;2022-11-25T09:33:48;4.50;99.90
12815;DHT22;6472;52.328;13.070;2022-11-25T09:36:17;4.60;99.90
12815;DHT22;6472;52.328;13.070;2022-11-25T09:38:47;4.70;99.90
12815;DHT22;6472;52.328;13.070;2022-11-25T09:41:26;4.70;99.90
12815;DHT22;6472;52.328;13.070;2022-11-25T09:44:27;4.80;99.90
12815;DHT22;6472;52.328;13.070;2022-11-25T09:47:21;5.00;99.90
12815;DHT22;6472;52.328;13.070;2022-11-25T09:50:02;5.10;99.90
12815;DHT22;6472;52.328;13.070;2022-11-25T09:52:39;5.10;99.90
12815;DHT22;6472;52.328;13.070;2022-11-25T09:55:15;5.30;99.90
12815;DHT22;6472;52.328;13.070;2022-11-25T09:57:56;5.40;99.90
12815;DHT22;6472;52.328;13.070;2022-11-25T10:00:34;5.50;99.90
12815;DHT22;6472;52.328;13.070;2022-11-25T10:03:08;5.70;99.90
12815;DHT22;6472;52.328;13.070;2022-11-25T10:05:42;5.80;99.90
12815;DHT22;6472;52.328;13.070;2022-11-25T10:08:16;5.90;99.90
12815;DHT22;6472;52.328;13.070;2022-11-25T10:10:50;5.90;99.90
12815;DHT22;6472;52.328;13.070;2022-11-25T10:13:26;5.90;99.90
12815;DHT22;6472;52.328;13.070;2022-11-25T10:15:58;5.90;99.90
12815;DHT22;6472;52.328;13.070;2022-11-25T10:18:32;6.00;99.90
12815;DHT22;6472;52.328;13.070;2022-11-25T10:21:04;6.00;99.90
12815;DHT22;6472;52.328;13.070;2022-11-25T10:23:34;6.00;99.90
12815;DHT22;6472;52.328;13.070;2022-11-25T10:26:11;6.10;99.90
12815;DHT22;6472;52.328;13.070;2022-11-25T10:28:42;6.10;99.90
12815;DHT22;6472;52.328;13.070;2022-11-25T10:31:15;6.10;99.90
12815;DHT22;6472;52.328;13.070;2022-11-25T10:33:45;6.20;99.90
12815;DHT22;6472;52.328;13.070;2022-11-25T10:36:16;6.20;99.90
12815;DHT22;6472;52.328;13.070;2022-11-25T10:38:52;6.20;99.90
12815;DHT22;6472;52.328;13.070;2022-11-25T10:41:27;6.20;99.90
12815;DHT22;6472;52.328;13.070;2022-11-25T10:43:56;6.30;99.90
12815;DHT22;6472;52.328;13.070;2022-11-25T10:46:30;6.30;99.90
12815;DHT22;6472;52.328;13.070;2022-11-25T10:49:25;6.40;99.90
12815;DHT22;6472;52.328;13.070;2022-11-25T10:51:55;6.40;99.90
12815;DHT22;6472;52.328;13.070;2022-11-25T10:54:26;6.40;99.90
12815;DHT22;6472;52.328;13.070;2022-11-25T10:56:57;6.30;99.90
12815;DHT22;6472;52.328;13.070;2022-11-25T10:59:28;6.40;99.90
12815;DHT22;6472;52.328;13.070;2022-11-25T11:02:16;6.40;99.90
12815;DHT22;6472;52.328;13.070;2022-11-25T11:04:52;6.50;99.90
12815;DHT22;6472;52.328;13.070;2022-11-25T11:07:20;6.50;99.90
12815;DHT22;6472;52.328;13.070;2022-11-25T11:09:48;6.60;99.90
12815;DHT22;6472;52.328;13.070;2022-11-25T11:12:20;6.60;99.90
12815;DHT22;6472;52.328;13.070;2022-11-25T11:14:49;6.60;99.90
12815;DHT22;6472;52.328;13.070;2022-11-25T11:17:28;6.60;99.90
12815;DHT22;6472;52.328;13.070;2022-11-25T11:20:13;6.70;99.90
12815;DHT22;6472;52.328;13.070;2022-11-25T11:22:47;6.60;99.90
12815;DHT22;6472;52.328;13.070;2022-11-25T11:25:26;6.70;99.90
12815;DHT22;6472;52.328;13.070;2022-11-25T11:27:56;6.70;99.90
12815;DHT22;6472;52.328;13.070;2022-11-25T11:30:26;6.80;99.90
12815;DHT22;6472;52.328;13.070;2022-11-25T11:32:58;6.90;99.90
12815;DHT22;6472;52.328;13.070;2022-11-25T11:35:46;7.00;99.90
12815;DHT22;6472;52.328;13.070;2022-11-25T11:38:31;7.00;99.90
12815;DHT22;6472;52.328;13.070;2022-11-25T11:41:12;7.00;99.90
12815;DHT22;6472;52.328;13.070;2022-11-25T11:43:54;7.00;99.90
12815;DHT22;6472;52.328;13.070;2022-11-25T11:46:31;7.00;99.90
12815;DHT22;6472;52.328;13.070;2022-11-25T11:49:19;7.00;99.90
12815;DHT22;6472;52.328;13.070;2022-11-25T11:52:00;6.90;99.90
12815;DHT22;6472;52.328;13.070;2022-11-25T11:54:33;6.90;99.90
12815;DHT22;6472;52.328;13.070;2022-11-25T11:57:04;6.80;99.90
12815;DHT22;6472;52.328;13.070;2022-11-25T11:59:47;6.80;99.90
12815;DHT22;6472;52.328;13.070;2022-11-25T12:02:27;6.70;99.90
12815;DHT22;6472;52.328;13.070;2022-11-25T12:05:04;6.80;99.90
12815;DHT22;6472;52.328;13.070;2022-11-25T12:07:35;6.80;99.90
12815;DHT22;6472;52.328;13.070;2022-11-25T12:10:09;6.90;99.90
12815;DHT22;6472;52.328;13.070;2022-11-25T12:12:48;6.90;99.90
12815;DHT22;6472;52.328;13.070;2022-11-25T12:15:23;7.00;99.90
12815;DHT22;6472;52.328;13.070;2022-11-25T12:17:59;7.00;99.90
12815;DHT22;6472;52.328;13.070;2022-11-25T12:20:34;7.10;99.90
12815;DHT22;6472;52.328;13.070;2022-11-25T12:23:08;7.20;99.90
12815;DHT22;6472;52.328;13.070;2022-11-25T12:25:40;7.30;99.90
12815;DHT22;6472;52.328;13.070;2022-11-25T12:28:11;7.40;99.90
12815;DHT22;6472;52.328;13.070;2022-11-25T12:30:57;7.50;99.90
12815;DHT22;6472;52.328;13.070;2022-11-25T12:33:41;7.60;99.90
12815;DHT22;6472;52.328;13.070;2022-11-25T12:36:14;7.70;99.90
12815;DHT22;6472;52.328;13.070;2022-11-25T12:38:46;7.70;99.90
12815;DHT22;6472;52.328;13.070;2022-11-25T12:41:24;7.80;99.90
12815;DHT22;6472;52.328;13.070;2022-11-25T12:43:58;7.90;99.90
12815;DHT22;6472;52.328;13.070;2022-11-25T12:46:34;7.90;99.90
12815;DHT22;6472;52.328;13.070;2022-11-25T12:49:06;8.00;99.90
12815;DHT22;6472;52.328;13.070;2022-11-25T12:51:53;8.00;99.90
12815;DHT22;6472;52.328;13.070;2022-11-25T12:54:39;7.90;99.90
12815;DHT22;6472;52.328;13.070;2022-11-25T13:00:09;7.90;99.90
12815;DHT22;6472;52.328;13.070;2022-11-25T13:03:22;7.90;99.90
12815;DHT22;6472;52.328;13.070;2022-11-25T13:06:21;7.90;99.90
12815;DHT22;6472;52.328;13.070;2022-11-25T13:09:00;7.80;99.90
12815;DHT22;6472;52.328;13.070;2022-11-25T13:12:00;7.80;99.90
12815;DHT22;6472;52.328;13.070;2022-11-25T13:14:46;7.70;99.90
12815;DHT22;6472;52.328;13.070;2022-11-25T13:17:22;7.70;99.90
12815;DHT22;6472;52.328;13.070;2022-11-25T13:20:26;7.70;99.90
12815;DHT22;6472;52.328;13.070;2022-11-25T13:23:01;7.70;99.90
12815;DHT22;6472;52.328;13.070;2022-11-25T13:25:30;7.70;99.90
12815;DHT22;6472;52.328;13.070;2022-11-25T13:27:59;7.70;99.90
12815;DHT22;6472;52.328;13.070;2022-11-25T13:30:36;7.70;99.90
12815;DHT22;6472;52.328;13.070;2022-11-25T13:36:17;7.70;99.90
12815;DHT22;6472;52.328;13.070;2022-11-25T13:39:04;7.80;99.90
12815;DHT22;6472;52.328;13.070;2022-11-25T13:41:36;7.70;99.90
12815;DHT22;6472;52.328;13.070;2022-11-25T13:44:23;7.70;99.90
12815;DHT22;6472;52.328;13.070;2022-11-25T13:46:54;7.70;99.90
12815;DHT22;6472;52.328;13.070;2022-11-25T13:49:30;7.60;99.90
12815;DHT22;6472;52.328;13.070;2022-11-25T13:52:05;7.60;99.90
12815;DHT22;6472;52.328;13.070;2022-11-25T13:54:47;7.60;99.90
12815;DHT22;6472;52.328;13.070;2022-11-25T13:57:22;7.60;99.90
12815;DHT22;6472;52.328;13.070;2022-11-25T13:59:57;7.60;99.90
12815;DHT22;6472;52.328;13.070;2022-11-25T14:02:39;7.50;99.90
12815;DHT22;6472;52.328;13.070;2022-11-25T14:05:53;7.40;99.90
12815;DHT22;6472;52.328;13.070;2022-11-25T14:08:36;7.40;99.90
12815;DHT22;6472;52.328;13.070;2022-11-25T14:14:28;7.30;99.90
12815;DHT22;6472;52.328;13.070;2022-11-25T14:17:15;7.30;99.90
12815;DHT22;6472;52.328;13.070;2022-11-25T14:20:10;7.20;99.90
12815;DHT22;6472;52.328;13.070;2022-11-25T14:23:18;7.10;99.90
12815;DHT22;6472;52.328;13.070;2022-11-25T14:25:51;7.10;99.90
12815;DHT22;6472;52.328;13.070;2022-11-25T14:28:25;7.00;99.90
12815;DHT22;6472;52.328;13.070;2022-11-25T14:30:57;7.00;99.90
12815;DHT22;6472;52.328;13.070;2022-11-25T14:33:32;6.90;99.90
12815;DHT22;6472;52.328;13.070;2022-11-25T14:36:06;6.90;99.90
12815;DHT22;6472;52.328;13.070;2022-11-25T14:38:39;6.80;99.90
12815;DHT22;6472;52.328;13.070;2022-11-25T14:41:16;6.80;99.90
12815;DHT22;6472;52.328;13.070;2022-11-25T14:43:47;6.70;99.90
12815;DHT22;6472;52.328;13.070;2022-11-25T14:46:18;6.70;99.90
12815;DHT22;6472;52.328;13.070;2022-11-25T14:48:52;6.70;99.90
12815;DHT22;6472;52.328;13.070;2022-11-25T14:51:22;6.60;99.90
12815;DHT22;6472;52.328;13.070;2022-11-25T14:53:51;6.50;99.90
12815;DHT22;6472;52.328;13.070;2022-11-25T14:56:26;6.40;99.90
12815;DHT22;6472;52.328;13.070;2022-11-25T14:58:56;6.40;99.90
12815;DHT22;6472;52.328;13.070;2022-11-25T15:01:26;6.30;99.90
12815;DHT22;6472;52.328;13.070;2022-11-25T15:04:03;6.20;99.90
12815;DHT22;6472;52.328;13.070;2022-11-25T15:06:35;6.10;99.90
12815;DHT22;6472;52.328;13.070;2022-11-25T15:09:18;6.10;99.90
12815;DHT22;6472;52.328;13.070;2022-11-25T15:11:51;6.00;99.90
12815;DHT22;6472;52.328;13.070;2022-11-25T15:14:24;6.00;99.90
12815;DHT22;6472;52.328;13.070;2022-11-25T15:16:53;5.90;99.90
12815;DHT22;6472;52.328;13.070;2022-11-25T15:19:24;5.90;99.90
12815;DHT22;6472;52.328;13.070;2022-11-25T15:22:00;5.90;99.90
12815;DHT22;6472;52.328;13.070;2022-11-25T15:24:49;5.80;99.90
12815;DHT22;6472;52.328;13.070;2022-11-25T15:27:25;5.80;99.90
12815;DHT22;6472;52.328;13.070;2022-11-25T15:29:54;5.70;99.90
12815;DHT22;6472;52.328;13.070;2022-11-25T15:32:26;5.70;99.90
12815;DHT22;6472;52.328;13.070;2022-11-25T15:34:57;5.70;99.90
12815;DHT22;6472;52.328;13.070;2022-11-25T15:37:26;5.70;99.90
12815;DHT22;6472;52.328;13.070;2022-11-25T15:42:58;5.60;99.90
12815;DHT22;6472;52.328;13.070;2022-11-25T15:45:31;5.60;99.90
12815;DHT22;6472;52.328;13.070;2022-11-25T15:48:01;5.60;99.90
12815;DHT22;6472;52.328;13.070;2022-11-25T15:50:31;5.60;99.90
12815;DHT22;6472;52.328;13.070;2022-11-25T15:53:21;5.60;99.90
12815;DHT22;6472;52.328;13.070;2022-11-25T15:55:59;5.60;99.90
12815;DHT22;6472;52.328;13.070;2022-11-25T15:58:29;5.60;99.90
12815;DHT22;6472;52.328;13.070;2022-11-25T16:01:02;5.60;99.90
12815;DHT22;6472;52.328;13.070;2022-11-25T16:03:31;5.60;99.90
12815;DHT22;6472;52.328;13.070;2022-11-25T16:06:01;5.60;99.90
12815;DHT22;6472;52.328;13.070;2022-11-25T16:08:32;5.60;99.90
12815;DHT22;6472;52.328;13.070;2022-11-25T16:11:12;5.50;99.90
12815;DHT22;6472;52.328;13.070;2022-11-25T16:13:44;5.50;99.90
12815;DHT22;6472;52.328;13.070;2022-11-25T16:16:20;5.50;99.90
12815;DHT22;6472;52.328;13.070;2022-11-25T16:18:56;5.50;99.90
12815;DHT22;6472;52.328;13.070;2022-11-25T16:21:40;5.50;99.90
12815;DHT22;6472;52.328;13.070;2022-11-25T16:24:18;5.50;99.90
12815;DHT22;6472;52.328;13.070;2022-11-25T16:26:50;5.40;99.90
12815;DHT22;6472;52.328;13.070;2022-11-25T16:29:26;5.40;99.90
12815;DHT22;6472;52.328;13.070;2022-11-25T16:31:57;5.50;99.90